Latest Weather Observations for Wyndham Airport

IDW60801

Issued at 1:03 pm WST Saturday 25 June 2016 (issued every 30 minutes, with the page automatically refreshed every 10 minutes)

About weather observations | Map of weather stations | Latest weather observations for WA | Other Formats
Station Details ID: 001006 Name: WYNDHAM AERO Lat: -15.51 Lon: 128.15 Height: 3.8 m
Data from the previous 72 hours. | See also: Recent months at Wyndham Airport
Date/Time
WST
Temp
°C
App
Temp
°C
Dew
Point
°C
Rel
Hum
%
Delta-T
°C
Wind Press
QNH
hPa
Press
MSL
hPa
Rain since
9am
mm
Dir  Spd
km/h
Gust
km/h
Spd
kts
Gust
kts
25/01:00pm 34.5 32.2 10.4 23 14.0 NNE 13 20 7 11 1010.6 1010.6 0.0
25/12:30pm 34.1 31.3 10.0 23 13.9 N 15 26 8 14 1011.0 1011.0 0.0
25/12:00pm 33.2 31.5 9.9 24 13.4 ENE 9 19 5 10 1011.6 1011.6 0.0
25/11:30am 33.0 31.8 10.4 25 13.0 N 7 13 4 7 1012.1 1012.1 0.0
25/11:00am 32.3 29.1 9.8 25 12.8 NE 17 24 9 13 1012.7 1012.7 0.0
25/10:30am 31.5 28.1 9.1 25 12.6 ENE 17 26 9 14 1013.1 1013.1 0.0
25/10:00am 31.6 28.4 9.8 26 12.4 ENE 17 26 9 14 1013.4 1013.4 0.0
25/09:30am 31.0 27.6 9.3 26 12.2 E 17 24 9 13 1013.7 1013.7 0.0
25/09:00am 29.6 28.6 10.2 30 11.0 SSE 6 15 3 8 1014.1 1014.1 0.0
25/08:30am 26.8 25.7 10.5 36 9.1 W 7 7 4 4 1014.4 1014.4 0.0
25/08:00am 25.2 25.4 10.6 40 8.1 CALM 0 6 0 3 1014.2 1014.2 0.0
25/07:30am 23.8 23.3 10.8 44 7.2 NW 4 6 2 3 1014.0 1014.0 0.0
25/07:00am 22.4 22.0 12.4 53 5.7 N 6 7 3 4 1013.6 1013.6 0.0
25/06:30am 20.0 19.2 11.2 57 4.8 NNW 6 9 3 5 1013.3 1013.3 0.0
25/06:00am 19.7 18.9 10.9 57 4.8 NW 6 7 3 4 1012.9 1012.9 0.0
25/05:30am 19.5 18.5 10.2 55 5.0 WNW 6 7 3 4 1012.5 1012.5 0.0
25/05:00am 20.3 19.4 10.7 54 5.2 W 6 7 3 4 1012.1 1012.1 0.0
25/04:30am 20.6 19.6 10.4 52 5.5 NW 6 7 3 4 1011.9 1011.9 0.0
25/04:00am 21.2 20.2 10.4 50 5.9 WNW 6 7 3 4 1011.8 1011.8 0.0
25/03:30am 21.0 20.2 9.6 48 6.1 WNW 4 7 2 4 1011.7 1011.7 0.0
25/03:00am 21.5 20.1 9.4 46 6.5 NW 7 9 4 5 1011.5 1011.5 0.0
25/02:30am 21.8 20.6 9.7 46 6.5 WNW 6 9 3 5 1011.3 1011.3 0.0
25/02:00am 21.4 20.1 9.9 48 6.2 NW 7 9 4 5 1011.3 1011.3 0.0
25/01:30am 20.5 19.2 10.0 51 5.6 NW 7 9 4 5 1011.5 1011.5 0.0
25/01:00am 20.5 18.7 9.4 49 5.9 WNW 9 9 5 5 1011.6 1011.6 0.0
25/12:30am 20.6 19.2 9.5 49 5.9 NW 7 9 4 5 1011.8 1011.8 0.0
25/12:00am 21.0 20.7 8.6 45 6.5 CALM 0 6 0 3 1011.9 1011.9 0.0
 
Date/Time
WST
Temp
°C
App
Temp
°C
Dew
Point
°C
Rel
Hum
%
Delta-T
°C
Wind Press
QNH
hPa
Press
MSL
hPa
Rain since
9am
mm
Dir  Spd
km/h
Gust
km/h
Spd
kts
Gust
kts
24/11:30pm 20.9 19.4 8.5 45 6.5 E 6 7 3 4 1011.9 1011.9 0.0
24/11:00pm 22.0 21.1 9.2 44 6.8 ESE 4 6 2 3 1012.0 1012.0 0.0
24/10:30pm 21.9 21.5 8.1 41 7.2 CALM 0 0 0 0 1012.2 1012.2 0.0
24/10:00pm 23.0 21.6 9.0 41 7.5 NNE 6 7 3 4 1012.2 1012.2 0.0
24/09:30pm 23.7 22.1 8.9 39 7.9 ENE 7 7 4 4 1012.3 1012.3 0.0
24/09:00pm 23.4 21.4 8.7 39 7.9 E 9 11 5 6 1012.4 1012.4 0.0
24/08:30pm 24.2 22.6 8.6 37 8.4 ESE 7 9 4 5 1012.4 1012.4 0.0
24/08:00pm 23.2 21.5 7.7 37 8.1 E 6 7 3 4 1012.2 1012.2 0.0
24/07:30pm 24.4 22.6 8.0 35 8.7 E 7 9 4 5 1012.0 1012.0 0.0
24/07:00pm 25.0 24.4 7.2 32 9.3 CALM 0 0 0 0 1011.8 1011.8 0.0
24/06:30pm 27.0 25.2 8.0 30 10.2 NW 7 9 4 5 1011.5 1011.5 0.0
24/06:00pm 28.0 25.8 7.8 28 10.9 NNW 9 11 5 6 1011.2 1011.2 0.0
24/05:30pm 29.1 27.1 7.1 25 11.8 NW 7 9 4 5 1010.9 1010.9 0.0
24/05:00pm 30.8 28.8 7.3 23 12.8 N 7 9 4 5 1010.6 1010.6 0.0
24/04:30pm 32.1 28.6 7.0 21 13.7 N 15 19 8 10 1010.4 1010.4 0.0
24/04:00pm 33.7 29.8 5.3 17 15.2 NE 15 28 8 15 1010.1 1010.1 0.0
24/03:30pm 34.4 29.9 4.0 15 16.0 ESE 17 24 9 13 1009.8 1009.8 0.0
24/03:00pm 34.9 30.8 4.4 15 16.2 ENE 15 24 8 13 1009.7 1009.7 0.0
24/02:30pm 35.1 31.4 4.6 15 16.2 ENE 13 20 7 11 1009.7 1009.7 0.0
24/02:00pm 35.1 30.7 4.6 15 16.2 E 17 22 9 12 1009.8 1009.8 0.0
24/01:30pm 34.5 31.3 5.0 16 15.7 E 11 19 6 10 1009.9 1009.9 0.0
24/01:00pm 35.0 31.5 5.4 16 16.0 E 13 20 7 11 1010.1 1010.1 0.0
24/12:30pm 35.1 31.8 6.4 17 15.7 ESE 13 17 7 9 1010.5 1010.5 0.0
24/12:00pm 34.2 31.5 7.3 19 14.9 E 11 17 6 9 1011.1 1011.1 0.0
24/11:30am 33.2 31.9 9.9 24 13.3 SE 7 13 4 7 1011.8 1011.8 0.0
24/11:00am 31.4 30.9 10.7 28 11.9 WSW 4 11 2 6 1012.5 1012.5 0.0
24/10:30am 30.0 29.3 11.5 32 10.7 NW 6 9 3 5 1012.9 1012.9 0.0
24/10:00am 28.3 27.3 10.9 34 9.9 WSW 7 11 4 6 1013.3 1013.3 0.0
24/09:30am 27.5 26.5 11.1 36 9.3 SW 7 11 4 6 1013.5 1013.5 0.0
24/09:00am 25.6 24.6 11.0 40 8.2 WSW 7 11 4 6 1013.5 1013.5 0.0
24/08:30am 24.5 24.9 11.1 43 7.5 CALM 0 0 0 0 1013.5 1013.5 0.0
24/08:00am 23.2 24.0 12.5 51 6.1 CALM 0 0 0 0 1013.5 1013.5 0.0
24/07:30am 21.9 22.6 12.2 54 5.5 CALM 0 0 0 0 1013.3 1013.3 0.0
24/07:00am 20.0 20.7 12.3 61 4.3 CALM 0 0 0 0 1012.9 1012.9 0.0
24/06:30am 18.6 18.8 10.7 60 4.3 CALM 0 0 0 0 1012.7 1012.7 0.0
24/06:00am 18.3 18.5 10.7 61 4.1 CALM 0 0 0 0 1012.3 1012.3 0.0
24/05:30am 18.5 18.7 10.6 60 4.2 CALM 0 0 0 0 1012.2 1012.2 0.0
24/05:00am 18.9 19.1 10.7 59 4.4 CALM 0 0 0 0 1012.1 1012.1 0.0
24/04:30am 18.4 18.4 9.7 57 4.6 CALM 0 0 0 0 1011.7 1011.7 0.0
24/04:00am 18.5 18.6 10.3 59 4.4 CALM 0 0 0 0 1011.5 1011.5 0.0
24/03:30am 18.2 18.1 9.5 57 4.6 CALM 0 0 0 0 1011.6 1011.6 0.0
24/03:00am 17.7 17.4 8.8 56 4.6 CALM 0 6 0 3 1011.6 1011.6 0.0
24/02:30am 18.7 18.8 10.0 57 4.6 CALM 0 0 0 0 1011.7 1011.7 0.0
24/02:00am 19.4 18.5 10.7 57 4.7 NNW 6 7 3 4 1011.7 1011.7 0.0
24/01:30am 18.4 16.7 9.7 57 4.6 NNW 9 9 5 5 1011.9 1011.9 0.0
24/01:00am 19.2 18.0 9.4 53 5.2 WSW 6 9 3 5 1011.9 1011.9 0.0
24/12:30am 19.4 18.7 8.4 49 5.7 WSW 2 7 1 4 1012.2 1012.2 0.0
24/12:00am 20.1 18.6 9.1 49 5.8 SE 7 11 4 6 1012.2 1012.2 0.0
 
Date/Time
WST
Temp
°C
App
Temp
°C
Dew
Point
°C
Rel
Hum
%
Delta-T
°C
Wind Press
QNH
hPa
Press
MSL
hPa
Rain since
9am
mm
Dir  Spd
km/h
Gust
km/h
Spd
kts
Gust
kts
23/11:30pm 20.1 16.9 8.4 47 6.1 ESE 15 15 8 8 1011.8 1011.8 0.0
23/11:00pm 21.8 20.1 9.7 46 6.5 ENE 9 11 5 6 1011.8 1011.8 0.0
23/10:30pm 21.4 18.8 9.3 46 6.5 E 13 15 7 8 1011.7 1011.7 0.0
23/10:00pm 22.0 19.6 9.9 46 6.6 E 13 17 7 9 1011.7 1011.7 0.0
23/09:30pm 21.5 19.2 9.1 45 6.6 ENE 11 15 6 8 1011.5 1011.5 0.0
23/09:00pm 22.2 17.9 7.2 38 7.7 E 19 22 10 12 1011.5 1011.5 0.0
23/08:30pm 22.2 17.8 6.4 36 8.0 ESE 19 22 10 12 1011.2 1011.2 0.0
23/08:00pm 21.5 19.9 4.6 33 8.3 WSW 2 6 1 3 1010.9 1010.9 0.0
23/07:30pm 22.1 20.5 4.7 32 8.6 W 2 7 1 4 1010.7 1010.7 0.0
23/07:00pm 22.8 20.6 5.3 32 8.8 WSW 6 6 3 3 1010.6 1010.6 0.0
23/06:30pm 23.7 22.6 5.1 30 9.3 CALM 0 6 0 3 1010.4 1010.4 0.0
23/06:00pm 24.9 22.1 5.2 28 10.0 N 9 11 5 6 1010.0 1010.0 0.0
23/05:30pm 27.0 24.5 4.7 24 11.3 NW 7 13 4 7 1009.8 1009.8 0.0
23/05:00pm 30.1 27.2 4.7 20 13.2 NNW 9 11 5 6 1009.6 1009.6 0.0
23/04:30pm 32.3 29.5 5.0 18 14.4 NW 9 13 5 7 1009.4 1009.4 0.0
23/04:00pm 33.4 29.8 5.0 17 15.1 WNW 13 17 7 9 1009.1 1009.1 0.0
23/03:30pm 33.7 30.5 5.3 17 15.2 NW 11 19 6 10 1008.9 1008.9 0.0
23/03:00pm 34.4 31.4 5.8 17 15.5 NW 11 20 6 11 1008.9 1008.9 0.0
23/02:30pm 33.9 29.8 6.3 18 15.0 W 17 20 9 11 1008.9 1008.9 0.0
23/02:00pm 34.2 30.8 5.7 17 15.4 WNW 13 17 7 9 1009.1 1009.1 0.0
23/01:30pm 33.8 31.4 7.0 19 14.7 WNW 9 15 5 8 1009.5 1009.5 0.0
23/01:00pm 33.5 30.6 6.7 19 14.6 WNW 11 20 6 11 1009.9 1009.9 0.0
23/12:30pm 33.4 31.1 7.4 20 14.3 NNW 9 13 5 7 1010.6 1010.6 0.0
23/12:00pm 32.2 30.6 7.8 22 13.5 NW 6 11 3 6 1011.1 1011.1 0.0
23/11:30am 31.5 30.0 9.1 25 12.6 WSW 7 13 4 7 1011.8 1011.8 0.0
23/11:00am 30.9 29.0 9.2 26 12.2 SW 9 15 5 8 1012.3 1012.3 0.0
23/10:30am 30.2 29.1 10.7 30 11.2 WNW 7 11 4 6 1012.7 1012.7 0.0
23/10:00am 28.4 26.8 10.1 32 10.3 SW 9 13 5 7 1013.2 1013.2 0.0
23/09:30am 27.0 25.8 10.2 35 9.4 WSW 7 11 4 6 1013.4 1013.4 0.0
23/09:00am 25.9 24.8 10.5 38 8.6 SW 7 11 4 6 1013.7 1013.7 0.0
23/08:30am 24.9 23.7 10.4 40 8.0 WSW 7 9 4 5 1013.7 1013.7 0.0
23/08:00am 23.6 22.6 11.0 45 7.0 WSW 7 11 4 6 1013.8 1013.8 0.0
23/07:30am 22.5 21.4 10.6 47 6.5 WNW 7 9 4 5 1013.7 1013.7 0.0
23/07:00am 19.8 19.6 10.5 55 5.0 WNW 2 7 1 4 1013.5 1013.5 0.0
23/06:30am 16.4 16.1 8.6 60 4.0 CALM 0 0 0 0 1013.3 1013.3 0.0
23/06:00am 15.4 14.9 7.9 61 3.8 CALM 0 0 0 0 1013.0 1013.0 0.0
23/05:30am 15.4 12.8 7.9 61 3.8 E 11 13 6 7 1012.9 1012.9 0.0
23/05:00am 15.1 12.0 7.4 60 3.8 ESE 13 13 7 7 1012.6 1012.6 0.0
23/04:30am 16.5 14.8 7.7 56 4.4 NNW 6 7 3 4 1012.2 1012.2 0.0
23/04:00am 16.7 15.0 8.4 58 4.2 NW 7 9 4 5 1012.0 1012.0 0.0
23/03:30am 17.0 15.8 8.2 56 4.5 W 4 6 2 3 1011.9 1011.9 0.0
23/03:00am 17.4 15.3 8.3 55 4.7 WSW 9 11 5 6 1011.8 1011.8 0.0
23/02:30am 16.6 14.3 7.5 55 4.6 NW 9 11 5 6 1011.5 1011.5 0.0
23/02:00am 16.5 15.9 7.4 55 4.5 CALM 0 0 0 0 1011.6 1011.6 0.0
23/01:30am 17.3 16.7 7.4 52 5.0 CALM 0 0 0 0 1011.8 1011.8 0.0
23/01:00am 18.7 17.1 8.9 53 5.1 E 7 9 4 5 1011.9 1011.9 0.0
23/12:30am 18.4 15.9 8.4 52 5.2 E 11 11 6 6 1012.0 1012.0 0.0
23/12:00am 19.3 17.2 8.3 49 5.7 E 9 11 5 6 1012.1 1012.1 0.0
 
Date/Time
WST
Temp
°C
App
Temp
°C
Dew
Point
°C
Rel
Hum
%
Delta-T
°C
Wind Press
QNH
hPa
Press
MSL
hPa
Rain since
9am
mm
Dir  Spd
km/h
Gust
km/h
Spd
kts
Gust
kts
22/11:30pm 20.1 17.7 8.8 48 5.9 E 11 13 6 7 1012.2 1012.2 0.0
22/11:00pm 19.7 17.9 8.1 47 6.0 ENE 7 9 4 5 1012.3 1012.3 0.0
22/10:30pm 20.4 17.9 8.4 46 6.3 E 11 13 6 7 1012.2 1012.2 0.0
22/10:00pm 20.0 16.8 6.7 42 6.7 ESE 13 13 7 7 1012.3 1012.3 0.0
22/09:30pm 20.9 17.7 6.8 40 7.2 E 13 13 7 7 1012.3 1012.3 0.0
22/09:00pm 19.6 18.5 4.9 38 7.1 CALM 0 0 0 0 1012.2 1012.2 0.0
22/08:30pm 20.1 17.5 4.2 35 7.6 NE 7 9 4 5 1011.9 1011.9 0.0
22/08:00pm 21.8 19.6 5.3 34 8.2 NE 6 7 3 4 1011.7 1011.7 0.0
22/07:30pm 22.9 21.1 5.3 32 8.8 ESE 4 7 2 4 1011.4 1011.4 0.0
22/07:00pm 24.1 22.8 5.9 31 9.3 S 2 9 1 5 1011.1 1011.1 0.0
22/06:30pm 24.2 21.9 4.6 28 9.8 SW 6 11 3 6 1010.8 1010.8 0.0
22/06:00pm 25.2 22.6 4.3 26 10.4 NNE 7 9 4 5 1010.4 1010.4 0.0
22/05:30pm 26.6 23.7 4.4 24 11.2 N 9 11 5 6 1010.0 1010.0 0.0
22/05:00pm 29.9 26.8 3.8 19 13.3 NNW 9 11 5 6 1009.7 1009.7 0.0
22/04:30pm 32.4 28.5 3.4 16 14.9 WNW 13 17 7 9 1009.3 1009.3 0.0
22/04:00pm 33.1 30.1 3.9 16 15.2 NNW 9 13 5 7 1009.3 1009.3 0.0
22/03:30pm 34.0 31.5 3.7 15 15.8 NW 6 11 3 6 1009.3 1009.3 0.0
22/03:00pm 33.3 29.7 3.2 15 15.5 WNW 11 17 6 9 1009.3 1009.3 0.0
22/02:30pm 34.8 30.7 4.4 15 16.1 SSE 15 32 8 17 1009.0 1009.0 0.0
22/02:00pm 32.6 28.9 2.6 15 15.2 ESE 11 19 6 10 1009.9 1009.9 0.0
22/01:30pm 32.8 29.6 2.8 15 15.3 S 9 17 5 9 1010.3 1010.3 0.0

Other Formats:

Comma delimited format used in spreadsheet applications
http://www.bom.gov.au/fwo/IDW60801/IDW60801.95214.axf

JavaScript Object Notation format (JSON) in row-major order
http://www.bom.gov.au/fwo/IDW60801/IDW60801.95214.json